Time;durP1;ratioP1;P1;durP2;ratioP2;P2;SDS_P1;SDS_P2;PMS_P1;PMS_P2;Temp;Humidity;BMP_temperature;BMP_pressure;BME280_temperature;BME280_humidity;BME280_pressure;Samples;Min_cycle;Max_cycle;Signal;HPM_P1;HPM_P2
2021/12/09 00:01:03;;;;;;;;;37.33;34.33;;;;;4.26;90.13;98222.84;5031639;28;46007;-75
2021/12/09 00:03:36;;;;;;;;;33.67;27.67;;;;;4.29;90.49;98219.28;5036192;28;45301;-75
2021/12/09 00:06:04;;;;;;;;;45.33;36.33;;;;;4.28;90.33;98210.63;5033993;28;45411;-75
2021/12/09 00:08:30;;;;;;;;;37.33;33.67;;;;;4.30;90.34;98210.56;5035079;28;45862;-75
2021/12/09 00:10:59;;;;;;;;;35.00;29.33;;;;;4.29;90.14;98225.38;5036081;28;45416;-75
2021/12/09 00:13:26;;;;;;;;;30.33;29.33;;;;;4.28;89.75;98223.66;5036083;28;45432;-76
2021/12/09 00:15:52;;;;;;;;;47.33;37.33;;;;;4.26;90.01;98220.25;5036073;28;45349;-75
2021/12/09 00:18:18;;;;;;;;;39.33;35.33;;;;;4.26;89.87;98215.03;5035915;28;45466;-75
2021/12/09 00:20:44;;;;;;;;;34.00;26.67;;;;;4.25;89.95;98217.66;5034716;28;45526;-75
2021/12/09 00:23:09;;;;;;;;;43.67;37.33;;;;;4.25;90.09;98220.28;5035340;28;45429;-75
2021/12/09 00:25:36;;;;;;;;;38.33;31.67;;;;;4.24;89.92;98215.97;5035798;28;45414;-76
2021/12/09 00:28:03;;;;;;;;;42.33;35.33;;;;;4.22;90.53;98226.44;5034827;28;45577;-75
2021/12/09 00:30:30;;;;;;;;;33.67;29.00;;;;;4.21;90.02;98228.19;5027118;28;45489;-76
2021/12/09 00:32:55;;;;;;;;;42.33;34.33;;;;;4.20;90.04;98220.41;5033601;28;45484;-76
2021/12/09 00:35:27;;;;;;;;;39.67;35.00;;;;;4.18;90.17;98220.47;5035877;28;45427;-75
2021/12/09 00:38:06;;;;;;;;;45.33;38.67;;;;;4.17;90.33;98230.94;5033847;28;45813;-75
2021/12/09 00:40:32;;;;;;;;;44.67;35.33;;;;;4.16;90.48;98229.25;5028656;28;45381;-75
2021/12/09 00:42:58;;;;;;;;;47.00;37.33;;;;;4.13;90.01;98230.19;5035376;28;45345;-75
2021/12/09 00:45:23;;;;;;;;;45.00;35.67;;;;;4.11;89.84;98237.19;5034366;28;45394;-75
2021/12/09 00:47:49;;;;;;;;;46.00;38.00;;;;;4.08;89.75;98239.88;5035587;28;45449;-75
2021/12/09 00:50:15;;;;;;;;;37.67;33.33;;;;;4.04;89.63;98247.81;5031974;28;45371;-75
2021/12/09 00:52:41;;;;;;;;;44.33;36.00;;;;;4.02;89.62;98244.44;5034972;28;45229;-75
2021/12/09 00:55:08;;;;;;;;;36.00;32.00;;;;;3.98;89.75;98234.97;5031906;28;45664;-75
2021/12/09 00:57:36;;;;;;;;;38.67;36.00;;;;;3.98;89.57;98240.19;5033910;28;45516;-75
2021/12/09 01:00:07;;;;;;;;;42.00;32.67;;;;;3.97;90.09;98251.53;5030376;28;45424;-75
2021/12/09 01:02:32;;;;;;;;;35.67;31.33;;;;;3.94;90.00;98243.78;5035286;28;45452;-75
2021/12/09 01:04:58;;;;;;;;;35.67;33.33;;;;;3.92;89.78;98256.84;5034623;28;45481;-75
2021/12/09 01:07:23;;;;;;;;;26.00;24.00;;;;;3.90;89.63;98248.22;5033727;28;45499;-75
2021/12/09 01:09:49;;;;;;;;;30.33;27.67;;;;;3.88;89.14;98257.81;5033162;28;45918;-75
2021/12/09 01:12:15;;;;;;;;;34.67;28.33;;;;;3.85;89.53;98257.94;5029237;28;45447;-75
2021/12/09 01:14:40;;;;;;;;;34.33;21.67;;;;;3.83;89.66;98272.75;5034902;28;45420;-75
2021/12/09 01:17:09;;;;;;;;;36.00;32.67;;;;;3.79;89.53;98277.19;5026972;28;45432;-75
2021/12/09 01:19:36;;;;;;;;;44.33;36.67;;;;;3.77;89.66;98272.91;5032835;28;46255;-75
2021/12/09 01:22:02;;;;;;;;;36.67;31.00;;;;;3.75;90.27;98279.91;5033438;28;45483;-75
2021/12/09 01:24:28;;;;;;;;;30.67;25.00;;;;;3.73;89.99;98287.75;5033259;28;45428;-75
2021/12/09 01:26:53;;;;;;;;;33.67;25.67;;;;;3.71;89.60;98296.50;5033872;28;45326;-75
2021/12/09 01:29:28;;;;;;;;;31.33;22.67;;;;;3.73;90.13;98305.16;5034712;28;45400;-75
2021/12/09 01:32:00;;;;;;;;;34.00;30.67;;;;;3.71;89.78;98288.69;5027827;28;45404;-76
2021/12/09 01:34:25;;;;;;;;;26.67;22.67;;;;;3.69;89.70;98296.56;5034776;28;45368;-76
2021/12/09 01:36:51;;;;;;;;;34.33;27.00;;;;;3.70;90.14;98297.41;5034600;28;45455;-75
2021/12/09 01:39:18;;;;;;;;;33.67;30.00;;;;;3.69;90.06;98290.47;5034382;28;45475;-75
2021/12/09 01:41:44;;;;;;;;;33.67;29.00;;;;;3.67;89.98;98287.94;5031591;28;45383;-76
2021/12/09 01:44:09;;;;;;;;;28.00;26.00;;;;;3.66;90.06;98286.22;5032207;28;45436;-75
2021/12/09 01:46:35;;;;;;;;;26.00;24.33;;;;;3.68;90.19;98304.44;5034596;28;45440;-76
2021/12/09 01:49:01;;;;;;;;;38.00;32.33;;;;;3.69;90.55;98293.94;5034649;28;46098;-76
2021/12/09 01:51:26;;;;;;;;;34.00;26.00;;;;;3.72;90.45;98303.44;5025783;28;45487;-76
2021/12/09 01:53:53;;;;;;;;;28.67;19.33;;;;;3.74;90.43;98307.72;5033652;28;45648;-76
2021/12/09 01:56:25;;;;;;;;;35.67;33.00;;;;;3.74;90.64;98304.25;5033488;28;45297;-76
2021/12/09 01:58:57;;;;;;;;;27.00;23.67;;;;;3.75;90.46;98313.78;5034498;28;45481;-76
2021/12/09 02:01:23;;;;;;;;;27.33;22.33;;;;;3.76;90.61;98315.50;5030005;28;45310;-76
2021/12/09 02:03:49;;;;;;;;;31.67;27.33;;;;;3.77;90.56;98325.91;5033181;28;45420;-76
2021/12/09 02:06:16;;;;;;;;;34.00;26.67;;;;;3.77;90.59;98320.69;5032784;28;45433;-76
2021/12/09 02:08:43;;;;;;;;;24.33;24.33;;;;;3.77;90.32;98320.69;5034432;28;46254;-76
2021/12/09 02:11:09;;;;;;;;;32.67;24.33;;;;;3.75;90.11;98312.03;5032958;28;45428;-76
2021/12/09 02:13:35;;;;;;;;;29.67;24.33;;;;;3.75;89.74;98306.84;5034397;28;45337;-76
2021/12/09 02:16:01;;;;;;;;;24.67;18.00;;;;;3.74;89.53;98319.91;5034107;28;45448;-76
2021/12/09 02:18:26;;;;;;;;;24.00;21.00;;;;;3.72;90.05;98317.34;5036191;28;47176;-76
2021/12/09 02:21:10;;;;;;;;;20.33;17.67;;;;;3.68;89.48;98320.94;5041574;28;45480;-76
2021/12/09 02:23:37;;;;;;;;;28.33;24.00;;;;;3.67;89.71;98328.78;5049701;28;45327;-76
2021/12/09 02:26:03;;;;;;;;;19.00;17.33;;;;;3.65;90.05;98323.63;5028428;28;45370;-76
2021/12/09 02:28:29;;;;;;;;;23.00;22.67;;;;;3.64;90.10;98326.25;5034117;28;46192;-76
2021/12/09 02:30:55;;;;;;;;;33.00;28.67;;;;;3.63;90.27;98316.72;5037082;28;45528;-76
2021/12/09 02:33:21;;;;;;;;;28.00;24.00;;;;;3.63;90.20;98321.94;5034323;28;45484;-76
2021/12/09 02:35:46;;;;;;;;;27.67;27.67;;;;;3.61;90.23;98314.16;5032086;28;45517;-76
2021/12/09 02:38:12;;;;;;;;;33.33;29.00;;;;;3.58;90.16;98321.19;5033418;28;46331;-77
2021/12/09 02:40:37;;;;;;;;;26.00;25.33;;;;;3.56;90.32;98325.56;5023636;28;45442;-76
2021/12/09 02:43:07;;;;;;;;;33.00;29.00;;;;;3.52;90.48;98316.97;5034386;28;45439;-76
2021/12/09 02:45:33;;;;;;;;;31.00;27.00;;;;;3.54;90.83;98322.16;5028788;28;45459;-76
2021/12/09 02:47:58;;;;;;;;;25.67;22.67;;;;;3.55;90.86;98321.25;5034013;28;45415;-76
2021/12/09 02:50:24;;;;;;;;;25.33;22.00;;;;;3.57;91.15;98325.53;5033421;28;45609;-75
2021/12/09 02:52:49;;;;;;;;;25.67;23.67;;;;;3.60;91.17;98324.63;5033731;28;45421;-76
2021/12/09 02:55:15;;;;;;;;;28.33;20.67;;;;;3.60;91.32;98330.69;5031848;28;45427;-76
2021/12/09 02:57:40;;;;;;;;;20.67;16.33;;;;;3.63;91.06;98324.53;5037306;28;45374;-76
2021/12/09 03:00:08;;;;;;;;;14.33;12.67;;;;;3.65;91.19;98318.41;5037376;28;45387;-76
2021/12/09 03:02:34;;;;;;;;;10.33;10.00;;;;;3.66;90.46;98321.88;5036090;28;45338;-76
2021/12/09 03:05:02;;;;;;;;;8.33;6.00;;;;;3.68;90.48;98328.75;5033042;28;45522;-76
2021/12/09 03:07:38;;;;;;;;;7.33;7.33;;;;;3.69;90.37;98327.81;5037007;28;46187;-76
2021/12/09 03:10:03;;;;;;;;;7.33;6.67;;;;;3.73;90.88;98326.00;5034712;28;45447;-76
2021/12/09 03:12:34;;;;;;;;;7.00;7.00;;;;;3.77;90.64;98331.13;5037000;28;45503;-76
2021/12/09 03:15:03;;;;;;;;;6.00;5.00;;;;;3.77;90.12;98332.88;5035191;28;45388;-76
2021/12/09 03:17:28;;;;;;;;;7.67;6.33;;;;;3.77;90.39;98327.66;5028932;28;45514;-76
2021/12/09 03:19:54;;;;;;;;;5.00;5.00;;;;;3.79;90.54;98331.06;5035681;28;45446;-76
2021/12/09 03:22:19;;;;;;;;;7.67;5.67;;;;;3.80;90.52;98325.81;5037412;28;45434;-76
2021/12/09 03:24:46;;;;;;;;;6.33;2.67;;;;;3.82;90.80;98323.19;5035119;28;45639;-76
2021/12/09 03:27:11;;;;;;;;;7.00;5.00;;;;;3.85;90.47;98341.34;5046675;28;47817;-76
2021/12/09 03:29:38;;;;;;;;;6.67;6.33;;;;;3.84;90.65;98337.91;5036332;28;45495;-76
2021/12/09 03:32:08;;;;;;;;;2.33;2.33;;;;;3.84;90.29;98337.91;5037184;28;45373;-76
2021/12/09 03:34:36;;;;;;;;;5.00;5.00;;;;;3.85;90.63;98339.56;5036709;28;45470;-75
2021/12/09 03:37:05;;;;;;;;;5.00;3.00;;;;;3.87;90.67;98347.38;5036472;28;45443;-76
2021/12/09 03:39:34;;;;;;;;;8.33;6.67;;;;;3.88;90.89;98338.66;5036546;28;45389;-76
2021/12/09 03:42:00;;;;;;;;;8.67;5.67;;;;;3.91;91.26;98346.41;5030960;28;45368;-76
2021/12/09 03:44:28;;;;;;;;;6.00;6.00;;;;;3.97;91.25;98345.38;5034538;28;45301;-76
2021/12/09 03:46:55;;;;;;;;;4.00;4.00;;;;;4.01;91.55;98354.84;5033041;28;45578;-76
2021/12/09 03:49:23;;;;;;;;;14.33;12.00;;;;;4.07;91.55;98362.50;5036078;28;45302;-76
2021/12/09 03:51:49;;;;;;;;;4.33;3.67;;;;;4.07;90.67;98334.66;5035262;28;45417;-76
2021/12/09 03:54:14;;;;;;;;;4.33;4.33;;;;;4.08;87.88;98359.00;5036674;28;45628;-76
2021/12/09 03:56:40;;;;;;;;;7.00;7.00;;;;;4.06;89.27;98351.19;5028601;28;47136;-76
2021/12/09 03:59:08;;;;;;;;;6.50;1.75;;;;;4.05;89.67;98349.50;5035208;28;45571;-76
2021/12/09 04:01:34;;;;;;;;;2.50;2.00;;;;;4.05;90.51;98352.09;5034516;28;45504;-76
2021/12/09 04:04:00;;;;;;;;;6.67;4.00;;;;;4.07;91.10;98359.88;5035848;28;45535;-76
2021/12/09 04:06:29;;;;;;;;;3.00;2.00;;;;;4.08;90.59;98356.38;5033655;28;48418;-76
2021/12/09 04:08:54;;;;;;;;;3.33;2.67;;;;;4.07;90.74;98360.75;5022805;28;45470;-76
2021/12/09 04:11:20;;;;;;;;;4.33;4.33;;;;;4.07;90.53;98354.66;5035117;28;45487;-75
2021/12/09 04:13:45;;;;;;;;;6.00;6.00;;;;;4.06;90.86;98360.78;5035946;28;45618;-76
2021/12/09 04:16:11;;;;;;;;;5.00;5.00;;;;;4.03;90.29;98366.94;5035452;28;46068;-76
2021/12/09 04:18:39;;;;;;;;;5.33;5.33;;;;;3.99;90.31;98362.72;5035657;28;45448;-75
2021/12/09 04:21:05;;;;;;;;;3.33;3.33;;;;;3.98;90.29;98363.59;5029276;28;45373;-75
2021/12/09 04:23:31;;;;;;;;;6.00;4.33;;;;;3.99;90.82;98362.72;5034316;28;45667;-75
2021/12/09 04:25:58;;;;;;;;;2.00;2.00;;;;;4.03;90.89;98366.06;5031217;28;46148;-76
2021/12/09 04:28:24;;;;;;;;;6.00;3.00;;;;;4.02;90.59;98367.81;5038066;28;45444;-75
2021/12/09 04:30:50;;;;;;;;;7.00;6.00;;;;;4.01;90.67;98373.09;5035832;28;45599;-75
2021/12/09 04:33:15;;;;;;;;;6.33;5.00;;;;;3.99;90.77;98378.34;5042854;28;45407;-75
2021/12/09 04:35:41;;;;;;;;;8.00;7.33;;;;;3.96;90.73;98375.81;5032973;28;46151;-75
2021/12/09 04:38:07;;;;;;;;;7.67;6.00;;;;;3.96;90.98;98380.19;5029132;28;45357;-75
2021/12/09 04:40:32;;;;;;;;;2.67;2.67;;;;;3.92;90.68;98371.56;5027699;28;45449;-75
2021/12/09 04:43:00;;;;;;;;;6.00;6.00;;;;;3.90;91.11;98380.31;5035887;28;45226;-75
2021/12/09 04:45:27;;;;;;;;;3.00;3.00;;;;;3.89;90.94;98381.22;5027243;28;47522;-75
2021/12/09 04:47:52;;;;;;;;;1.00;1.00;;;;;3.89;90.59;98392.50;5035895;28;45388;-75
2021/12/09 04:50:18;;;;;;;;;2.00;2.00;;;;;3.88;90.51;98377.75;5028995;28;45515;-75
2021/12/09 04:52:43;;;;;;;;;3.00;2.00;;;;;3.88;90.39;98387.31;5035119;28;45410;-75
2021/12/09 04:55:09;;;;;;;;;3.00;3.00;;;;;3.90;90.55;98398.56;5035539;28;46449;-75
2021/12/09 04:57:35;;;;;;;;;7.00;6.00;;;;;3.87;90.89;98399.50;5032616;28;45506;-75
2021/12/09 05:00:05;;;;;;;;;5.33;5.33;;;;;3.88;90.51;98410.78;5035230;28;45370;-75
2021/12/09 05:02:44;;;;;;;;;4.67;4.67;;;;;3.84;90.02;98412.63;5046672;28;45361;-75
2021/12/09 05:05:11;;;;;;;;;7.00;4.00;;;;;3.83;90.82;98418.75;5029276;28;47888;-75
2021/12/09 05:07:36;;;;;;;;;5.67;4.67;;;;;3.81;90.71;98421.38;5050616;28;45350;-75
2021/12/09 05:10:03;;;;;;;;;5.00;5.00;;;;;3.80;90.79;98424.88;5035552;28;45622;-75
2021/12/09 05:12:29;;;;;;;;;2.67;2.00;;;;;3.79;90.37;98431.00;5035238;28;45432;-75
2021/12/09 05:14:54;;;;;;;;;2.33;2.00;;;;;3.77;89.83;98437.13;5034595;28;46070;-77
2021/12/09 05:17:19;;;;;;;;;1.00;1.00;;;;;3.76;89.98;98427.59;5035000;28;45372;-75
2021/12/09 05:19:45;;;;;;;;;1.00;1.00;;;;;3.74;89.94;98437.19;5034002;28;45620;-75
2021/12/09 05:22:11;;;;;;;;;1.00;1.00;;;;;3.72;89.78;98445.06;5034768;28;45433;-75
2021/12/09 05:24:37;;;;;;;;;1.25;1.25;;;;;3.74;90.04;98447.63;5033257;28;46268;-76
2021/12/09 05:27:04;;;;;;;;;2.00;2.00;;;;;3.76;90.25;98445.84;5023538;28;45414;-75
2021/12/09 05:29:36;;;;;;;;;1.67;1.00;;;;;3.76;89.96;98448.44;5034112;28;45433;-75
2021/12/09 05:32:08;;;;;;;;;0.00;0.00;;;;;3.75;90.10;98458.03;5026350;28;45452;-76
2021/12/09 05:34:38;;;;;;;;;14.33;14.33;;;;;3.74;90.07;98455.44;5032642;28;46935;-75
2021/12/09 05:37:06;;;;;;;;;3.33;3.33;;;;;3.74;90.36;98463.25;5025535;28;45408;-75
2021/12/09 05:39:33;;;;;;;;;0.25;0.25;;;;;3.74;90.33;98456.31;5034639;28;45411;-75
2021/12/09 05:41:59;;;;;;;;;1.00;1.00;;;;;3.76;89.91;98479.72;5033033;28;45379;-75
2021/12/09 05:44:25;;;;;;;;;0.50;0.50;;;;;3.75;90.06;98481.47;5033340;28;45337;-76
2021/12/09 05:46:51;;;;;;;;;1.00;1.00;;;;;3.74;89.66;98474.56;5025908;28;45380;-75
2021/12/09 05:49:17;;;;;;;;;2.33;1.00;;;;;3.69;89.50;98481.59;5034713;28;45428;-75
2021/12/09 05:51:46;;;;;;;;;1.33;1.33;;;;;3.64;89.68;98486.09;5032136;28;45584;-76
2021/12/09 05:54:12;;;;;;;;;1.50;1.25;;;;;3.63;89.78;98493.94;5048772;28;46950;-75
2021/12/09 05:56:38;;;;;;;;;1.00;1.00;;;;;3.63;89.94;98497.41;5029131;28;45391;-75
2021/12/09 05:59:05;;;;;;;;;3.00;1.00;;;;;3.63;89.87;98491.34;5033825;28;45378;-77
2021/12/09 06:01:30;;;;;;;;;2.00;2.00;;;;;3.59;89.87;98493.16;5032276;28;45507;-77
2021/12/09 06:03:56;;;;;;;;;3.33;2.33;;;;;3.56;90.03;98498.41;5033743;28;45599;-77
2021/12/09 06:06:22;;;;;;;;;5.00;2.33;;;;;3.54;89.96;98495.00;5030341;28;45445;-77
2021/12/09 06:08:47;;;;;;;;;3.33;3.33;;;;;3.49;90.24;98500.31;5032410;28;45577;-77
2021/12/09 06:11:13;;;;;;;;;6.00;5.00;;;;;3.50;90.14;98506.41;5025719;28;45525;-77
2021/12/09 06:13:40;;;;;;;;;8.00;7.00;;;;;3.47;90.06;98491.69;5048848;28;47069;-77
2021/12/09 06:16:07;;;;;;;;;7.00;6.00;;;;;3.47;90.08;98502.09;5028506;28;45404;-77
2021/12/09 06:18:34;;;;;;;;;9.33;6.00;;;;;3.47;90.28;98501.25;5032811;28;45540;-78
2021/12/09 06:20:59;;;;;;;;;7.00;6.33;;;;;3.46;90.54;98505.59;5031302;28;45364;-75
2021/12/09 06:23:25;;;;;;;;;9.33;6.33;;;;;3.45;90.21;98503.03;5031823;28;48018;-75
2021/12/09 06:25:51;;;;;;;;;7.33;7.33;;;;;3.46;90.61;98497.78;5031532;28;45395;-76
2021/12/09 06:28:19;;;;;;;;;4.67;4.67;;;;;3.49;90.44;98489.91;5049111;28;45512;-77
2021/12/09 06:30:47;;;;;;;;;11.33;11.33;;;;;3.52;90.60;98501.16;5029069;28;45777;-77
2021/12/09 06:33:13;;;;;;;;;11.00;9.00;;;;;3.54;90.68;98504.56;5051782;28;47046;-77
2021/12/09 06:35:39;;;;;;;;;8.00;6.33;;;;;3.55;90.49;98499.31;5035260;28;45458;-77
2021/12/09 06:38:08;;;;;;;;;10.00;7.00;;;;;3.55;90.14;98499.31;5036109;28;45369;-77
2021/12/09 06:40:34;;;;;;;;;7.67;7.67;;;;;3.54;90.18;98494.13;5029061;28;45388;-77
2021/12/09 06:42:59;;;;;;;;;7.33;6.67;;;;;3.53;89.94;98503.69;5034512;28;46414;-77
2021/12/09 06:45:25;;;;;;;;;12.00;8.67;;;;;3.52;89.84;98506.38;5028270;28;45421;-77
2021/12/09 06:47:51;;;;;;;;;11.67;9.33;;;;;3.52;90.28;98501.16;5027556;28;45509;-77
2021/12/09 06:50:19;;;;;;;;;8.67;8.67;;;;;3.51;90.41;98502.91;5044904;28;45496;-75
2021/12/09 06:52:45;;;;;;;;;10.00;7.00;;;;;3.49;90.27;98522.91;5035559;28;45467;-76
2021/12/09 06:55:12;;;;;;;;;11.50;10.50;;;;;3.48;90.44;98529.88;5033863;28;45431;-77
2021/12/09 06:57:39;;;;;;;;;13.00;12.33;;;;;3.48;90.35;98532.47;5032526;28;45395;-76
2021/12/09 07:00:28;;;;;;;;;10.00;9.67;;;;;3.46;90.13;98534.25;5034218;28;45489;-77
2021/12/09 07:02:54;;;;;;;;;10.67;9.33;;;;;3.46;89.61;98549.03;5035101;28;45463;-76
2021/12/09 07:05:22;;;;;;;;;13.00;9.33;;;;;3.53;89.19;98534.09;5031319;28;45503;-77
2021/12/09 07:07:49;;;;;;;;;12.00;10.33;;;;;3.61;89.05;98534.81;5035727;28;45421;-77
2021/12/09 07:10:15;;;;;;;;;11.00;11.00;;;;;3.65;89.43;98539.06;5033816;28;45390;-77
2021/12/09 07:12:41;;;;;;;;;12.00;10.00;;;;;3.67;89.73;98547.72;5035744;28;45487;-78
2021/12/09 07:15:10;;;;;;;;;9.33;9.33;;;;;3.66;89.44;98556.44;5035513;28;45418;-77
2021/12/09 07:17:36;;;;;;;;;7.00;7.00;;;;;3.66;89.37;98556.44;5031042;28;45429;-77
2021/12/09 07:20:05;;;;;;;;;9.00;8.00;;;;;3.66;89.92;98554.69;5032509;28;45472;-77
2021/12/09 07:22:30;;;;;;;;;11.67;8.33;;;;;3.70;89.86;98568.47;5033639;28;47889;-77
2021/12/09 07:24:56;;;;;;;;;6.67;6.00;;;;;3.75;89.32;98571.88;5033046;28;45513;-77
2021/12/09 07:27:21;;;;;;;;;5.00;4.33;;;;;3.78;89.11;98570.06;5027273;28;45401;-78
2021/12/09 07:29:47;;;;;;;;;7.33;3.00;;;;;3.81;89.42;98561.31;5035187;28;45452;-77
2021/12/09 07:32:12;;;;;;;;;6.67;6.67;;;;;3.83;88.73;98580.38;5027784;28;45648;-77
2021/12/09 07:34:38;;;;;;;;;11.00;11.00;;;;;3.90;88.87;98586.31;5034513;28;45579;-78
2021/12/09 07:37:05;;;;;;;;;5.67;5.00;;;;;3.97;88.55;98580.06;5030273;28;45378;-78
2021/12/09 07:39:32;;;;;;;;;3.00;2.00;;;;;3.98;88.52;98600.06;5034410;28;45356;-78
2021/12/09 07:41:59;;;;;;;;;15.00;11.00;;;;;3.98;87.90;98598.31;5026601;28;45491;-77
2021/12/09 07:44:26;;;;;;;;;11.67;8.00;;;;;4.01;88.62;98589.56;5034605;28;45376;-76
2021/12/09 07:46:53;;;;;;;;;5.00;5.00;;;;;4.00;88.82;98604.34;5035448;28;45487;-76
2021/12/09 07:49:19;;;;;;;;;8.00;7.33;;;;;4.00;88.71;98600.88;5035265;28;45456;-77
2021/12/09 07:51:45;;;;;;;;;8.00;7.33;;;;;3.99;89.15;98602.63;5030280;28;47086;-77
2021/12/09 07:54:11;;;;;;;;;10.00;8.67;;;;;4.01;89.35;98602.59;5032832;28;45374;-77
2021/12/09 07:56:36;;;;;;;;;9.00;7.33;;;;;4.04;89.70;98608.56;5029737;28;45477;-77
2021/12/09 07:59:02;;;;;;;;;8.00;8.00;;;;;4.10;90.17;98613.66;5034086;28;45559;-76
2021/12/09 08:01:29;;;;;;;;;8.00;8.00;;;;;4.17;89.72;98617.00;5030999;28;45748;-77
2021/12/09 08:03:55;;;;;;;;;7.67;7.33;;;;;4.21;89.33;98613.41;5034946;28;45423;-77
2021/12/09 08:06:21;;;;;;;;;8.00;6.00;;;;;4.25;89.31;98624.66;5032259;28;45529;-77
2021/12/09 08:08:46;;;;;;;;;7.00;7.00;;;;;4.27;88.82;98623.72;5035120;28;45463;-77
2021/12/09 08:11:11;;;;;;;;;9.00;8.00;;;;;4.34;88.46;98627.06;5028775;28;46365;-77
2021/12/09 08:13:37;;;;;;;;;10.33;7.33;;;;;4.39;88.64;98620.81;5033625;28;45565;-76
2021/12/09 08:16:03;;;;;;;;;7.33;4.33;;;;;4.44;88.37;98633.78;5033663;28;45499;-77
2021/12/09 08:18:31;;;;;;;;;7.67;5.00;;;;;4.47;88.41;98626.72;5034161;28;45467;-77
2021/12/09 08:21:01;;;;;;;;;11.67;11.00;;;;;4.54;86.88;98624.81;5034751;28;45449;-77
2021/12/09 08:23:28;;;;;;;;;7.00;7.00;;;;;4.57;86.48;98628.22;5049196;28;45482;-77
2021/12/09 08:25:55;;;;;;;;;7.00;6.67;;;;;4.58;87.18;98636.91;5023149;28;45422;-77
2021/12/09 08:28:20;;;;;;;;;12.00;8.67;;;;;4.59;87.32;98637.75;5034114;28;45484;-77
2021/12/09 08:30:50;;;;;;;;;12.33;9.33;;;;;4.59;85.83;98645.59;5026177;28;46277;-77
2021/12/09 08:33:17;;;;;;;;;7.67;7.67;;;;;4.59;86.65;98637.75;5034305;28;45439;-76
2021/12/09 08:35:43;;;;;;;;;10.00;8.00;;;;;4.62;87.86;98654.22;5030063;28;45413;-77
2021/12/09 08:38:08;;;;;;;;;7.67;7.67;;;;;4.61;83.84;98656.88;5034437;28;45424;-77
2021/12/09 08:40:34;;;;;;;;;9.67;8.00;;;;;4.64;85.18;98654.19;5028085;28;46143;-77
2021/12/09 08:43:00;;;;;;;;;14.67;10.33;;;;;4.65;86.13;98648.94;5034206;28;45388;-77
2021/12/09 08:45:25;;;;;;;;;16.00;11.67;;;;;4.67;85.56;98657.59;5026012;28;45408;-77
2021/12/09 08:47:51;;;;;;;;;12.00;10.33;;;;;4.69;85.58;98650.56;5033041;28;45579;-77
2021/12/09 08:50:21;;;;;;;;;11.33;9.67;;;;;4.74;84.75;98653.06;5030377;28;46046;-77
2021/12/09 08:52:50;;;;;;;;;12.00;9.00;;;;;4.74;84.67;98653.91;5033887;28;45531;-76
2021/12/09 08:55:17;;;;;;;;;6.33;6.33;;;;;4.76;83.93;98656.50;5034573;28;45446;-76
2021/12/09 08:57:43;;;;;;;;;8.00;8.00;;;;;4.73;83.09;98660.03;5034228;28;45446;-77
2021/12/09 09:00:13;;;;;;;;;11.33;8.67;;;;;4.79;84.01;98648.59;5029507;28;45523;-76
2021/12/09 09:02:40;;;;;;;;;15.00;15.00;;;;;4.84;85.87;98655.44;5034354;28;45431;-76
2021/12/09 09:05:10;;;;;;;;;12.67;11.67;;;;;4.88;86.03;98671.84;5031237;28;45305;-77
2021/12/09 09:07:40;;;;;;;;;13.00;10.00;;;;;4.93;85.00;98684.81;5033860;28;45487;-77
2021/12/09 09:10:07;;;;;;;;;17.33;13.33;;;;;4.93;85.98;98682.19;5034061;28;46222;-77
2021/12/09 09:12:33;;;;;;;;;18.33;18.33;;;;;4.87;86.00;98664.91;5034027;28;45393;-77
2021/12/09 09:15:00;;;;;;;;;7.25;7.25;;;;;4.84;84.51;98678.06;5034316;28;45557;-77
2021/12/09 09:17:26;;;;;;;;;5.67;3.67;;;;;4.78;84.79;98694.75;5032825;28;45503;-76
2021/12/09 09:19:51;;;;;;;;;5.00;5.00;;;;;4.68;84.26;98685.41;5034323;28;46420;-76
2021/12/09 09:22:16;;;;;;;;;6.33;4.00;;;;;4.62;84.98;98693.38;5028591;28;45450;-77
2021/12/09 09:24:42;;;;;;;;;4.00;4.00;;;;;4.49;85.26;98698.03;5031104;28;45936;-76
2021/12/09 09:27:08;;;;;;;;;7.67;6.33;;;;;4.38;84.68;98697.38;5034678;28;45445;-77
2021/12/09 09:29:34;;;;;;;;;6.67;3.00;;;;;4.33;84.85;98699.25;5049167;28;46902;-77
2021/12/09 09:32:00;;;;;;;;;3.00;3.00;;;;;4.29;85.35;98713.25;5049626;28;45443;-76
2021/12/09 09:34:26;;;;;;;;;9.00;3.67;;;;;4.24;85.43;98709.88;5032722;28;45441;-76
2021/12/09 09:36:52;;;;;;;;;1.33;1.33;;;;;4.25;84.63;98721.19;5033485;28;45314;-76
2021/12/09 09:39:18;;;;;;;;;4.67;3.00;;;;;4.24;85.68;98702.06;5033756;28;46202;-76
2021/12/09 09:41:54;;;;;;;;;5.67;5.67;;;;;4.21;85.88;98702.97;5028001;28;45523;-76
2021/12/09 09:44:22;;;;;;;;;6.00;3.33;;;;;4.17;85.81;98708.31;5032586;28;45449;-76
2021/12/09 09:46:48;;;;;;;;;13.67;7.33;;;;;4.14;86.78;98698.78;5027970;28;45606;-76
2021/12/09 09:49:13;;;;;;;;;3.00;3.00;;;;;4.04;86.90;98723.34;5033624;28;45748;-76
2021/12/09 09:51:40;;;;;;;;;1.00;1.00;;;;;3.90;86.77;98724.50;5033178;28;45330;-76
2021/12/09 09:54:08;;;;;;;;;2.00;1.67;;;;;3.72;87.06;98717.91;5033720;28;45367;-76
2021/12/09 09:56:35;;;;;;;;;1.00;1.00;;;;;3.60;88.27;98734.63;5046818;28;45631;-76
2021/12/09 09:59:05;;;;;;;;;1.00;1.00;;;;;3.46;88.17;98721.88;5034047;28;45729;-77
2021/12/09 10:01:35;;;;;;;;;1.00;1.00;;;;;3.35;89.12;98715.97;5032804;28;45503;-76
2021/12/09 10:04:12;;;;;;;;;3.00;3.00;;;;;3.31;89.94;98716.06;5033568;28;45456;-77
2021/12/09 10:06:40;;;;;;;;;6.33;4.33;;;;;3.28;90.45;98721.31;5032394;28;45354;-77
2021/12/09 10:09:07;;;;;;;;;3.00;3.00;;;;;3.26;89.73;98723.94;5037100;28;46288;-77
2021/12/09 10:11:34;;;;;;;;;5.00;2.00;;;;;3.26;89.72;98723.09;5036486;28;45521;-77
2021/12/09 10:14:32;;;;;;;;;1.00;1.00;;;;;3.30;90.63;98727.38;5025741;28;45476;-77
2021/12/09 10:17:07;;;;;;;;;0.00;0.00;;;;;3.29;89.94;98713.50;5013469;28;45589;-77
2021/12/09 10:19:36;;;;;;;;;1.00;1.00;;;;;3.32;89.24;98710.84;5036971;28;46154;-76
2021/12/09 10:22:20;;;;;;;;;1.25;1.25;;;;;3.37;90.25;98703.78;5036716;28;45364;-76
2021/12/09 10:24:47;;;;;;;;;1.00;1.00;;;;;3.46;90.70;98705.38;5036822;28;45467;-76
2021/12/09 10:27:24;;;;;;;;;4.33;2.00;;;;;3.56;90.61;98695.63;5037526;28;45575;-77
2021/12/09 10:29:54;;;;;;;;;2.00;2.00;;;;;3.65;90.15;98698.06;5037202;28;46730;-76
2021/12/09 10:32:27;;;;;;;;;2.00;2.00;;;;;3.73;89.72;98688.34;5037356;28;45232;-77
2021/12/09 10:34:53;;;;;;;;;1.00;1.00;;;;;3.80;88.20;98695.16;5037252;28;45455;-77
2021/12/09 10:37:28;;;;;;;;;2.00;2.00;;;;;3.79;88.50;98686.47;5036671;28;45621;-77
2021/12/09 10:39:56;;;;;;;;;2.00;2.00;;;;;3.78;89.41;98679.53;5023987;28;46365;-77
2021/12/09 10:42:22;;;;;;;;;2.00;2.00;;;;;3.81;89.08;98692.53;5035091;28;45776;-77
2021/12/09 10:44:55;;;;;;;;;2.33;2.00;;;;;3.82;88.24;98694.25;5036769;28;45364;-76
2021/12/09 10:48:21;;;;;;;;;2.00;2.00;;;;;3.82;88.66;98683.81;5036763;28;45456;-77
2021/12/09 10:53:31;;;;;;;;;3.33;3.00;;;;;3.89;88.99;98689.75;5036740;28;45509;-77
2021/12/09 10:56:11;;;;;;;;;3.00;3.00;;;;;4.03;89.64;98686.84;5036119;28;45476;-77
2021/12/09 10:58:39;;;;;;;;;3.00;3.00;;;;;4.14;89.46;98675.31;5051042;28;45542;-75
2021/12/09 11:01:10;;;;;;;;;5.00;3.67;;;;;4.27;88.44;98672.44;5036803;28;45500;-76
2021/12/09 11:03:37;;;;;;;;;2.00;2.00;;;;;4.33;86.85;98667.94;5036036;28;45446;-76
2021/12/09 11:06:04;;;;;;;;;3.00;3.00;;;;;4.37;87.71;98666.97;5034295;28;45455;-76
2021/12/09 11:08:35;;;;;;;;;2.00;2.00;;;;;4.42;86.19;98661.66;5035801;28;45460;-77
2021/12/09 11:11:06;;;;;;;;;2.33;2.00;;;;;4.50;85.13;98671.03;5035515;28;46061;-76
2021/12/09 11:13:52;;;;;;;;;2.33;1.67;;;;;4.55;86.63;98684.81;5034963;28;45415;-76
2021/12/09 11:16:30;;;;;;;;;2.00;2.00;;;;;4.58;85.47;98681.28;5035130;28;45507;-76
2021/12/09 11:19:08;;;;;;;;;3.00;3.00;;;;;4.61;85.28;98672.53;5035550;28;45572;-77
2021/12/09 11:21:39;;;;;;;;;3.00;3.00;;;;;4.58;84.18;98668.22;5035463;28;46326;-77
2021/12/09 11:24:10;;;;;;;;;2.33;2.33;;;;;4.57;86.29;98666.50;5035546;28;45655;-76
2021/12/09 11:26:57;;;;;;;;;4.00;4.00;;;;;4.54;86.27;98669.19;5035968;28;45535;-77
2021/12/09 11:29:31;;;;;;;;;2.00;2.00;;;;;4.50;85.66;98671.03;5035898;28;45384;-77
2021/12/09 11:34:47;;;;;;;;;2.00;2.00;;;;;4.41;83.19;98688.63;5035897;28;45343;-77
2021/12/09 11:40:09;;;;;;;;;3.00;3.00;;;;;4.42;85.41;98669.47;5035639;28;45535;-77
2021/12/09 11:42:44;;;;;;;;;3.00;2.00;;;;;4.42;83.63;98695.56;5035614;28;46351;-76
2021/12/09 11:45:13;;;;;;;;;5.33;3.00;;;;;4.44;83.79;98665.94;5050867;28;45393;-77
2021/12/09 11:47:43;;;;;;;;;3.00;3.00;;;;;4.46;83.92;98652.88;5035411;28;45299;-77